sensor_id;sensor_type;location;lat;lon;timestamp;P1;durP1;ratioP1;P2;durP2;ratioP2
60582;SDS011;46415;47.536;19.066;2022-10-30T00:00:20;27.45;;;16.00;;
60582;SDS011;46415;47.536;19.066;2022-10-30T00:03:23;30.35;;;19.45;;
60582;SDS011;46415;47.536;19.066;2022-10-30T00:06:26;19.60;;;12.52;;
60582;SDS011;46415;47.536;19.066;2022-10-30T00:09:28;25.83;;;14.70;;
60582;SDS011;46415;47.536;19.066;2022-10-30T00:12:31;24.33;;;14.07;;
60582;SDS011;46415;47.536;19.066;2022-10-30T00:15:34;25.45;;;16.58;;
60582;SDS011;46415;47.536;19.066;2022-10-30T00:18:37;30.40;;;20.00;;
60582;SDS011;46415;47.536;19.066;2022-10-30T00:21:43;30.00;;;17.70;;
60582;SDS011;46415;47.536;19.066;2022-10-30T00:24:45;28.45;;;17.23;;
60582;SDS011;46415;47.536;19.066;2022-10-30T00:27:48;33.35;;;21.25;;
60582;SDS011;46415;47.536;19.066;2022-10-30T00:30:51;29.20;;;20.02;;
60582;SDS011;46415;47.536;19.066;2022-10-30T00:33:53;31.25;;;20.92;;
60582;SDS011;46415;47.536;19.066;2022-10-30T00:37:02;26.62;;;16.02;;
60582;SDS011;46415;47.536;19.066;2022-10-30T00:40:05;33.08;;;21.30;;
60582;SDS011;46415;47.536;19.066;2022-10-30T00:43:32;32.65;;;19.83;;
60582;SDS011;46415;47.536;19.066;2022-10-30T00:46:37;28.50;;;16.58;;
60582;SDS011;46415;47.536;19.066;2022-10-30T00:53:04;28.45;;;18.75;;
60582;SDS011;46415;47.536;19.066;2022-10-30T00:56:11;26.92;;;17.02;;
60582;SDS011;46415;47.536;19.066;2022-10-30T00:59:18;22.10;;;14.93;;
60582;SDS011;46415;47.536;19.066;2022-10-30T01:02:25;27.42;;;16.08;;
60582;SDS011;46415;47.536;19.066;2022-10-30T01:05:29;20.40;;;13.23;;
60582;SDS011;46415;47.536;19.066;2022-10-30T01:08:33;22.50;;;15.57;;
60582;SDS011;46415;47.536;19.066;2022-10-30T01:11:37;23.95;;;15.60;;
60582;SDS011;46415;47.536;19.066;2022-10-30T01:14:41;19.95;;;12.82;;
60582;SDS011;46415;47.536;19.066;2022-10-30T01:31:31;20.40;;;12.40;;
60582;SDS011;46415;47.536;19.066;2022-10-30T01:34:57;20.23;;;15.10;;
60582;SDS011;46415;47.536;19.066;2022-10-30T01:38:18;20.08;;;13.70;;
60582;SDS011;46415;47.536;19.066;2022-10-30T01:41:26;25.73;;;17.23;;
60582;SDS011;46415;47.536;19.066;2022-10-30T01:44:30;20.12;;;12.25;;
60582;SDS011;46415;47.536;19.066;2022-10-30T01:47:38;22.95;;;16.80;;
60582;SDS011;46415;47.536;19.066;2022-10-30T01:54:37;19.95;;;13.70;;
60582;SDS011;46415;47.536;19.066;2022-10-30T01:58:07;19.33;;;13.30;;
60582;SDS011;46415;47.536;19.066;2022-10-30T02:01:17;20.73;;;15.00;;
60582;SDS011;46415;47.536;19.066;2022-10-30T02:04:21;20.12;;;14.82;;
60582;SDS011;46415;47.536;19.066;2022-10-30T02:07:24;14.63;;;9.43;;
60582;SDS011;46415;47.536;19.066;2022-10-30T02:10:28;20.23;;;11.80;;
60582;SDS011;46415;47.536;19.066;2022-10-30T02:13:32;19.35;;;14.48;;
60582;SDS011;46415;47.536;19.066;2022-10-30T02:16:37;16.77;;;10.50;;
60582;SDS011;46415;47.536;19.066;2022-10-30T02:19:44;17.65;;;11.95;;
60582;SDS011;46415;47.536;19.066;2022-10-30T02:22:47;19.55;;;14.70;;
60582;SDS011;46415;47.536;19.066;2022-10-30T02:25:55;15.63;;;11.35;;
60582;SDS011;46415;47.536;19.066;2022-10-30T02:29:00;20.98;;;14.48;;
60582;SDS011;46415;47.536;19.066;2022-10-30T02:32:03;19.05;;;11.93;;
60582;SDS011;46415;47.536;19.066;2022-10-30T02:35:07;18.12;;;13.57;;
60582;SDS011;46415;47.536;19.066;2022-10-30T02:38:10;21.05;;;13.75;;
60582;SDS011;46415;47.536;19.066;2022-10-30T02:41:13;21.05;;;14.93;;
60582;SDS011;46415;47.536;19.066;2022-10-30T02:44:16;18.77;;;13.25;;
60582;SDS011;46415;47.536;19.066;2022-10-30T02:47:20;18.20;;;12.93;;
60582;SDS011;46415;47.536;19.066;2022-10-30T02:50:24;22.62;;;12.95;;
60582;SDS011;46415;47.536;19.066;2022-10-30T02:53:27;20.30;;;14.35;;
60582;SDS011;46415;47.536;19.066;2022-10-30T02:56:29;17.62;;;11.80;;
60582;SDS011;46415;47.536;19.066;2022-10-30T02:59:33;24.10;;;15.57;;
60582;SDS011;46415;47.536;19.066;2022-10-30T03:02:37;17.05;;;10.68;;
60582;SDS011;46415;47.536;19.066;2022-10-30T03:05:39;22.52;;;14.13;;
60582;SDS011;46415;47.536;19.066;2022-10-30T03:08:42;18.83;;;11.88;;
60582;SDS011;46415;47.536;19.066;2022-10-30T03:11:45;24.05;;;15.30;;
60582;SDS011;46415;47.536;19.066;2022-10-30T03:14:48;17.05;;;10.70;;
60582;SDS011;46415;47.536;19.066;2022-10-30T03:17:51;20.37;;;12.23;;
60582;SDS011;46415;47.536;19.066;2022-10-30T03:20:55;17.80;;;11.90;;
60582;SDS011;46415;47.536;19.066;2022-10-30T03:23:59;22.80;;;15.50;;
60582;SDS011;46415;47.536;19.066;2022-10-30T03:27:01;17.55;;;9.80;;
60582;SDS011;46415;47.536;19.066;2022-10-30T03:30:04;23.70;;;15.00;;
60582;SDS011;46415;47.536;19.066;2022-10-30T03:33:08;18.90;;;11.25;;
60582;SDS011;46415;47.536;19.066;2022-10-30T03:36:11;17.70;;;11.52;;
60582;SDS011;46415;47.536;19.066;2022-10-30T03:39:15;24.85;;;15.18;;
60582;SDS011;46415;47.536;19.066;2022-10-30T03:42:18;22.70;;;15.52;;
60582;SDS011;46415;47.536;19.066;2022-10-30T03:45:23;18.08;;;10.63;;
60582;SDS011;46415;47.536;19.066;2022-10-30T03:48:27;24.05;;;15.10;;
60582;SDS011;46415;47.536;19.066;2022-10-30T03:51:31;20.67;;;12.70;;
60582;SDS011;46415;47.536;19.066;2022-10-30T03:54:34;19.95;;;13.07;;
60582;SDS011;46415;47.536;19.066;2022-10-30T03:57:37;19.45;;;13.90;;
60582;SDS011;46415;47.536;19.066;2022-10-30T04:00:46;15.07;;;9.05;;
60582;SDS011;46415;47.536;19.066;2022-10-30T04:03:49;17.10;;;10.05;;
60582;SDS011;46415;47.536;19.066;2022-10-30T04:06:52;20.73;;;14.15;;
60582;SDS011;46415;47.536;19.066;2022-10-30T04:09:56;18.12;;;11.43;;
60582;SDS011;46415;47.536;19.066;2022-10-30T04:12:59;18.62;;;9.30;;
60582;SDS011;46415;47.536;19.066;2022-10-30T04:16:06;20.92;;;14.07;;
60582;SDS011;46415;47.536;19.066;2022-10-30T04:19:09;17.12;;;10.85;;
60582;SDS011;46415;47.536;19.066;2022-10-30T04:22:12;10.25;;;8.20;;
60582;SDS011;46415;47.536;19.066;2022-10-30T04:25:14;21.17;;;13.45;;
60582;SDS011;46415;47.536;19.066;2022-10-30T04:28:17;16.60;;;11.77;;
60582;SDS011;46415;47.536;19.066;2022-10-30T04:31:21;14.98;;;9.02;;
60582;SDS011;46415;47.536;19.066;2022-10-30T04:34:24;20.33;;;12.18;;
60582;SDS011;46415;47.536;19.066;2022-10-30T04:37:27;18.87;;;10.45;;
60582;SDS011;46415;47.536;19.066;2022-10-30T04:40:31;18.02;;;10.98;;
60582;SDS011;46415;47.536;19.066;2022-10-30T04:43:36;14.10;;;9.32;;
60582;SDS011;46415;47.536;19.066;2022-10-30T04:46:38;16.30;;;10.02;;
60582;SDS011;46415;47.536;19.066;2022-10-30T04:49:41;14.57;;;7.68;;
60582;SDS011;46415;47.536;19.066;2022-10-30T04:52:45;19.08;;;11.25;;
60582;SDS011;46415;47.536;19.066;2022-10-30T04:55:51;19.87;;;12.93;;
60582;SDS011;46415;47.536;19.066;2022-10-30T04:58:55;13.13;;;9.27;;
60582;SDS011;46415;47.536;19.066;2022-10-30T05:01:57;14.82;;;9.20;;
60582;SDS011;46415;47.536;19.066;2022-10-30T05:05:00;13.73;;;9.35;;
60582;SDS011;46415;47.536;19.066;2022-10-30T05:08:04;21.87;;;12.30;;
60582;SDS011;46415;47.536;19.066;2022-10-30T05:11:06;17.00;;;9.57;;
60582;SDS011;46415;47.536;19.066;2022-10-30T05:14:09;18.67;;;12.18;;
60582;SDS011;46415;47.536;19.066;2022-10-30T05:17:12;16.77;;;10.57;;
60582;SDS011;46415;47.536;19.066;2022-10-30T05:20:15;17.02;;;10.10;;
60582;SDS011;46415;47.536;19.066;2022-10-30T05:23:20;17.42;;;11.20;;
60582;SDS011;46415;47.536;19.066;2022-10-30T05:26:23;16.85;;;11.38;;
60582;SDS011;46415;47.536;19.066;2022-10-30T05:29:26;15.30;;;9.60;;
60582;SDS011;46415;47.536;19.066;2022-10-30T05:32:28;16.90;;;9.90;;
60582;SDS011;46415;47.536;19.066;2022-10-30T05:35:32;20.25;;;12.93;;
60582;SDS011;46415;47.536;19.066;2022-10-30T05:38:37;17.67;;;10.32;;
60582;SDS011;46415;47.536;19.066;2022-10-30T05:41:40;16.92;;;10.15;;
60582;SDS011;46415;47.536;19.066;2022-10-30T05:44:43;16.62;;;11.43;;
60582;SDS011;46415;47.536;19.066;2022-10-30T05:48:03;17.37;;;9.23;;
60582;SDS011;46415;47.536;19.066;2022-10-30T05:51:07;20.00;;;13.52;;
60582;SDS011;46415;47.536;19.066;2022-10-30T05:54:11;17.17;;;10.00;;
60582;SDS011;46415;47.536;19.066;2022-10-30T05:57:15;21.45;;;14.63;;
60582;SDS011;46415;47.536;19.066;2022-10-30T06:00:18;15.15;;;8.55;;
60582;SDS011;46415;47.536;19.066;2022-10-30T06:03:21;18.25;;;10.63;;
60582;SDS011;46415;47.536;19.066;2022-10-30T06:06:24;19.33;;;12.63;;
60582;SDS011;46415;47.536;19.066;2022-10-30T06:09:27;17.37;;;9.57;;
60582;SDS011;46415;47.536;19.066;2022-10-30T06:12:30;20.35;;;13.38;;
60582;SDS011;46415;47.536;19.066;2022-10-30T06:15:33;17.98;;;10.30;;
60582;SDS011;46415;47.536;19.066;2022-10-30T06:18:37;21.25;;;13.82;;
60582;SDS011;46415;47.536;19.066;2022-10-30T06:21:39;18.48;;;11.20;;
60582;SDS011;46415;47.536;19.066;2022-10-30T06:24:42;19.30;;;9.40;;
60582;SDS011;46415;47.536;19.066;2022-10-30T06:27:45;19.02;;;12.98;;
60582;SDS011;46415;47.536;19.066;2022-10-30T06:30:48;21.10;;;12.35;;
60582;SDS011;46415;47.536;19.066;2022-10-30T06:33:51;22.23;;;13.98;;
60582;SDS011;46415;47.536;19.066;2022-10-30T06:36:53;22.20;;;14.68;;
60582;SDS011;46415;47.536;19.066;2022-10-30T06:39:57;23.08;;;13.90;;
60582;SDS011;46415;47.536;19.066;2022-10-30T06:43:01;19.87;;;11.82;;
60582;SDS011;46415;47.536;19.066;2022-10-30T06:46:04;20.37;;;12.30;;
60582;SDS011;46415;47.536;19.066;2022-10-30T06:49:13;20.20;;;13.18;;
60582;SDS011;46415;47.536;19.066;2022-10-30T06:52:16;21.45;;;14.13;;
60582;SDS011;46415;47.536;19.066;2022-10-30T06:55:20;19.65;;;10.55;;
60582;SDS011;46415;47.536;19.066;2022-10-30T06:58:23;22.65;;;14.10;;
60582;SDS011;46415;47.536;19.066;2022-10-30T07:01:27;22.62;;;13.80;;
60582;SDS011;46415;47.536;19.066;2022-10-30T07:04:30;22.30;;;14.20;;
60582;SDS011;46415;47.536;19.066;2022-10-30T07:07:32;17.58;;;10.50;;
60582;SDS011;46415;47.536;19.066;2022-10-30T07:10:36;27.00;;;15.32;;
60582;SDS011;46415;47.536;19.066;2022-10-30T07:13:40;23.40;;;13.73;;
60582;SDS011;46415;47.536;19.066;2022-10-30T07:16:43;42.20;;;29.58;;
60582;SDS011;46415;47.536;19.066;2022-10-30T07:19:46;39.50;;;27.40;;
60582;SDS011;46415;47.536;19.066;2022-10-30T07:22:50;34.80;;;25.05;;
60582;SDS011;46415;47.536;19.066;2022-10-30T07:25:53;31.92;;;20.42;;
60582;SDS011;46415;47.536;19.066;2022-10-30T07:29:01;37.05;;;25.67;;
60582;SDS011;46415;47.536;19.066;2022-10-30T07:32:04;34.00;;;23.20;;
60582;SDS011;46415;47.536;19.066;2022-10-30T07:35:08;21.42;;;13.88;;
60582;SDS011;46415;47.536;19.066;2022-10-30T07:38:15;24.37;;;14.20;;
60582;SDS011;46415;47.536;19.066;2022-10-30T07:41:19;23.92;;;14.23;;
60582;SDS011;46415;47.536;19.066;2022-10-30T07:44:22;22.83;;;13.52;;
60582;SDS011;46415;47.536;19.066;2022-10-30T07:47:26;21.23;;;13.73;;
60582;SDS011;46415;47.536;19.066;2022-10-30T07:50:30;22.05;;;11.70;;
60582;SDS011;46415;47.536;19.066;2022-10-30T07:53:33;22.35;;;13.82;;
60582;SDS011;46415;47.536;19.066;2022-10-30T07:56:37;22.48;;;14.25;;
60582;SDS011;46415;47.536;19.066;2022-10-30T07:59:41;20.98;;;13.15;;
60582;SDS011;46415;47.536;19.066;2022-10-30T08:02:49;23.05;;;13.88;;
60582;SDS011;46415;47.536;19.066;2022-10-30T08:05:53;22.40;;;13.43;;
60582;SDS011;46415;47.536;19.066;2022-10-30T08:08:56;21.17;;;12.13;;
60582;SDS011;46415;47.536;19.066;2022-10-30T08:12:00;22.50;;;13.88;;
60582;SDS011;46415;47.536;19.066;2022-10-30T08:15:03;22.58;;;14.77;;
60582;SDS011;46415;47.536;19.066;2022-10-30T08:18:06;22.83;;;14.43;;
60582;SDS011;46415;47.536;19.066;2022-10-30T08:21:10;26.60;;;15.60;;
60582;SDS011;46415;47.536;19.066;2022-10-30T08:24:15;22.23;;;13.98;;
60582;SDS011;46415;47.536;19.066;2022-10-30T08:27:18;25.80;;;16.00;;
60582;SDS011;46415;47.536;19.066;2022-10-30T08:30:21;25.62;;;15.75;;
60582;SDS011;46415;47.536;19.066;2022-10-30T08:33:27;20.55;;;12.90;;
60582;SDS011;46415;47.536;19.066;2022-10-30T08:36:35;25.75;;;14.60;;
60582;SDS011;46415;47.536;19.066;2022-10-30T08:39:37;23.05;;;15.15;;
60582;SDS011;46415;47.536;19.066;2022-10-30T08:42:41;23.87;;;15.10;;
60582;SDS011;46415;47.536;19.066;2022-10-30T08:45:44;25.60;;;16.30;;
60582;SDS011;46415;47.536;19.066;2022-10-30T08:48:47;28.48;;;17.30;;
60582;SDS011;46415;47.536;19.066;2022-10-30T08:51:50;25.60;;;15.38;;
60582;SDS011;46415;47.536;19.066;2022-10-30T08:54:53;24.50;;;16.00;;
60582;SDS011;46415;47.536;19.066;2022-10-30T08:57:57;31.30;;;18.35;;
60582;SDS011;46415;47.536;19.066;2022-10-30T09:01:01;24.35;;;14.77;;
60582;SDS011;46415;47.536;19.066;2022-10-30T09:04:09;26.90;;;16.95;;
60582;SDS011;46415;47.536;19.066;2022-10-30T09:07:15;23.98;;;15.73;;
60582;SDS011;46415;47.536;19.066;2022-10-30T09:10:18;35.67;;;22.37;;
60582;SDS011;46415;47.536;19.066;2022-10-30T09:13:21;26.83;;;17.35;;
60582;SDS011;46415;47.536;19.066;2022-10-30T09:16:24;26.15;;;15.65;;
60582;SDS011;46415;47.536;19.066;2022-10-30T09:19:26;30.48;;;20.08;;
60582;SDS011;46415;47.536;19.066;2022-10-30T09:22:30;32.13;;;18.92;;
60582;SDS011;46415;47.536;19.066;2022-10-30T09:25:33;27.77;;;17.35;;
60582;SDS011;46415;47.536;19.066;2022-10-30T09:28:36;26.77;;;16.17;;
60582;SDS011;46415;47.536;19.066;2022-10-30T09:31:42;24.12;;;16.27;;
60582;SDS011;46415;47.536;19.066;2022-10-30T09:34:47;23.05;;;14.85;;
60582;SDS011;46415;47.536;19.066;2022-10-30T09:37:50;21.25;;;14.38;;
60582;SDS011;46415;47.536;19.066;2022-10-30T09:44:49;21.90;;;13.07;;
60582;SDS011;46415;47.536;19.066;2022-10-30T10:07:41;18.87;;;11.45;;
60582;SDS011;46415;47.536;19.066;2022-10-30T10:10:51;16.98;;;11.60;;
60582;SDS011;46415;47.536;19.066;2022-10-30T10:17:22;16.10;;;10.52;;
60582;SDS011;46415;47.536;19.066;2022-10-30T10:20:31;16.55;;;11.43;;
60582;SDS011;46415;47.536;19.066;2022-10-30T10:23:40;18.35;;;12.48;;
60582;SDS011;46415;47.536;19.066;2022-10-30T10:30:03;17.67;;;12.63;;
60582;SDS011;46415;47.536;19.066;2022-10-30T10:36:45;20.10;;;13.13;;
60582;SDS011;46415;47.536;19.066;2022-10-30T10:43:00;17.80;;;13.15;;
60582;SDS011;46415;47.536;19.066;2022-10-30T10:56:49;18.52;;;13.50;;
60582;SDS011;46415;47.536;19.066;2022-10-30T10:59:57;19.70;;;14.40;;
60582;SDS011;46415;47.536;19.066;2022-10-30T11:03:16;17.27;;;12.40;;
60582;SDS011;46415;47.536;19.066;2022-10-30T11:06:26;22.02;;;14.15;;
60582;SDS011;46415;47.536;19.066;2022-10-30T11:09:33;21.60;;;13.48;;
60582;SDS011;46415;47.536;19.066;2022-10-30T11:12:36;20.75;;;14.02;;
60582;SDS011;46415;47.536;19.066;2022-10-30T11:15:41;19.17;;;13.95;;
60582;SDS011;46415;47.536;19.066;2022-10-30T11:18:58;19.45;;;13.62;;
60582;SDS011;46415;47.536;19.066;2022-10-30T11:25:33;19.90;;;13.38;;
60582;SDS011;46415;47.536;19.066;2022-10-30T11:28:40;19.52;;;13.07;;
60582;SDS011;46415;47.536;19.066;2022-10-30T11:31:44;23.80;;;13.25;;
60582;SDS011;46415;47.536;19.066;2022-10-30T11:38:15;20.85;;;14.13;;
60582;SDS011;46415;47.536;19.066;2022-10-30T11:41:21;17.48;;;12.63;;
60582;SDS011;46415;47.536;19.066;2022-10-30T11:44:28;19.40;;;13.77;;
60582;SDS011;46415;47.536;19.066;2022-10-30T11:47:34;19.55;;;13.05;;
60582;SDS011;46415;47.536;19.066;2022-10-30T11:50:39;19.37;;;13.57;;
60582;SDS011;46415;47.536;19.066;2022-10-30T11:53:49;18.52;;;13.68;;
60582;SDS011;46415;47.536;19.066;2022-10-30T11:56:51;18.80;;;13.05;;
60582;SDS011;46415;47.536;19.066;2022-10-30T11:59:55;21.58;;;14.15;;
60582;SDS011;46415;47.536;19.066;2022-10-30T12:06:52;22.62;;;14.85;;
60582;SDS011;46415;47.536;19.066;2022-10-30T12:10:20;21.08;;;14.77;;
60582;SDS011;46415;47.536;19.066;2022-10-30T12:13:26;21.17;;;14.50;;
60582;SDS011;46415;47.536;19.066;2022-10-30T12:16:35;22.13;;;14.48;;
60582;SDS011;46415;47.536;19.066;2022-10-30T12:19:37;21.55;;;15.40;;
60582;SDS011;46415;47.536;19.066;2022-10-30T12:22:50;20.90;;;14.73;;
60582;SDS011;46415;47.536;19.066;2022-10-30T12:25:53;22.13;;;15.48;;
60582;SDS011;46415;47.536;19.066;2022-10-30T12:28:59;22.80;;;14.57;;
60582;SDS011;46415;47.536;19.066;2022-10-30T12:32:06;21.55;;;14.87;;
60582;SDS011;46415;47.536;19.066;2022-10-30T12:35:21;20.65;;;15.02;;
60582;SDS011;46415;47.536;19.066;2022-10-30T12:38:51;21.48;;;14.70;;
60582;SDS011;46415;47.536;19.066;2022-10-30T12:42:05;22.17;;;15.00;;
60582;SDS011;46415;47.536;19.066;2022-10-30T12:52:11;19.87;;;14.15;;
60582;SDS011;46415;47.536;19.066;2022-10-30T12:55:22;19.85;;;14.45;;
60582;SDS011;46415;47.536;19.066;2022-10-30T12:58:30;20.77;;;13.98;;
60582;SDS011;46415;47.536;19.066;2022-10-30T13:01:43;21.00;;;14.05;;
60582;SDS011;46415;47.536;19.066;2022-10-30T13:04:53;18.83;;;13.45;;
60582;SDS011;46415;47.536;19.066;2022-10-30T13:11:30;19.75;;;13.65;;
60582;SDS011;46415;47.536;19.066;2022-10-30T13:14:45;20.75;;;14.15;;
60582;SDS011;46415;47.536;19.066;2022-10-30T13:17:54;22.20;;;14.93;;
60582;SDS011;46415;47.536;19.066;2022-10-30T13:21:02;19.77;;;13.88;;
60582;SDS011;46415;47.536;19.066;2022-10-30T13:24:12;20.80;;;13.35;;
60582;SDS011;46415;47.536;19.066;2022-10-30T13:27:27;19.05;;;13.60;;
60582;SDS011;46415;47.536;19.066;2022-10-30T13:30:46;19.80;;;14.27;;
60582;SDS011;46415;47.536;19.066;2022-10-30T13:41:05;20.90;;;14.87;;
60582;SDS011;46415;47.536;19.066;2022-10-30T13:44:16;21.12;;;14.85;;
60582;SDS011;46415;47.536;19.066;2022-10-30T13:47:32;20.05;;;14.52;;
60582;SDS011;46415;47.536;19.066;2022-10-30T13:57:33;20.85;;;15.10;;
60582;SDS011;46415;47.536;19.066;2022-10-30T14:13:55;22.85;;;15.60;;
60582;SDS011;46415;47.536;19.066;2022-10-30T14:17:14;22.05;;;15.30;;
60582;SDS011;46415;47.536;19.066;2022-10-30T14:23:22;21.37;;;14.45;;
60582;SDS011;46415;47.536;19.066;2022-10-30T14:26:34;27.58;;;18.62;;
60582;SDS011;46415;47.536;19.066;2022-10-30T14:29:39;28.08;;;19.05;;
60582;SDS011;46415;47.536;19.066;2022-10-30T14:32:49;25.73;;;17.17;;
60582;SDS011;46415;47.536;19.066;2022-10-30T14:42:31;23.98;;;15.40;;
60582;SDS011;46415;47.536;19.066;2022-10-30T14:45:44;22.45;;;15.45;;
60582;SDS011;46415;47.536;19.066;2022-10-30T14:49:08;22.62;;;14.73;;
60582;SDS011;46415;47.536;19.066;2022-10-30T14:56:07;22.75;;;15.55;;
60582;SDS011;46415;47.536;19.066;2022-10-30T15:02:36;20.73;;;13.65;;
60582;SDS011;46415;47.536;19.066;2022-10-30T15:06:01;19.02;;;13.50;;
60582;SDS011;46415;47.536;19.066;2022-10-30T15:09:35;18.75;;;13.35;;
60582;SDS011;46415;47.536;19.066;2022-10-30T15:16:25;19.42;;;13.00;;
60582;SDS011;46415;47.536;19.066;2022-10-30T15:19:30;19.30;;;13.02;;
60582;SDS011;46415;47.536;19.066;2022-10-30T15:22:36;17.25;;;12.48;;
60582;SDS011;46415;47.536;19.066;2022-10-30T15:25:46;19.02;;;13.80;;
60582;SDS011;46415;47.536;19.066;2022-10-30T15:28:52;21.15;;;13.70;;
60582;SDS011;46415;47.536;19.066;2022-10-30T15:31:59;19.33;;;13.15;;
60582;SDS011;46415;47.536;19.066;2022-10-30T15:35:20;20.33;;;13.60;;
60582;SDS011;46415;47.536;19.066;2022-10-30T15:38:25;22.62;;;14.07;;
60582;SDS011;46415;47.536;19.066;2022-10-30T15:41:28;21.35;;;13.98;;
60582;SDS011;46415;47.536;19.066;2022-10-30T15:44:32;18.98;;;13.18;;
60582;SDS011;46415;47.536;19.066;2022-10-30T15:47:37;18.67;;;14.05;;
60582;SDS011;46415;47.536;19.066;2022-10-30T15:54:04;19.30;;;13.90;;
60582;SDS011;46415;47.536;19.066;2022-10-30T15:57:14;15.35;;;9.77;;
60582;SDS011;46415;47.536;19.066;2022-10-30T16:00:53;19.70;;;13.73;;
60582;SDS011;46415;47.536;19.066;2022-10-30T16:03:58;18.30;;;13.82;;
60582;SDS011;46415;47.536;19.066;2022-10-30T16:07:20;19.75;;;14.18;;
60582;SDS011;46415;47.536;19.066;2022-10-30T16:13:29;19.92;;;13.65;;
60582;SDS011;46415;47.536;19.066;2022-10-30T16:16:33;21.33;;;14.07;;
60582;SDS011;46415;47.536;19.066;2022-10-30T16:19:46;19.62;;;13.88;;
60582;SDS011;46415;47.536;19.066;2022-10-30T16:22:51;21.42;;;14.98;;
60582;SDS011;46415;47.536;19.066;2022-10-30T16:25:55;19.40;;;13.77;;
60582;SDS011;46415;47.536;19.066;2022-10-30T16:29:01;19.98;;;14.57;;
60582;SDS011;46415;47.536;19.066;2022-10-30T16:32:06;22.13;;;14.50;;
60582;SDS011;46415;47.536;19.066;2022-10-30T16:35:20;21.00;;;13.75;;
60582;SDS011;46415;47.536;19.066;2022-10-30T16:38:25;20.92;;;14.20;;
60582;SDS011;46415;47.536;19.066;2022-10-30T16:41:31;18.62;;;11.27;;
60582;SDS011;46415;47.536;19.066;2022-10-30T16:44:34;20.25;;;14.52;;
60582;SDS011;46415;47.536;19.066;2022-10-30T16:47:38;20.90;;;14.27;;
60582;SDS011;46415;47.536;19.066;2022-10-30T16:50:47;19.65;;;14.25;;
60582;SDS011;46415;47.536;19.066;2022-10-30T16:53:51;20.70;;;13.57;;
60582;SDS011;46415;47.536;19.066;2022-10-30T16:56:54;21.60;;;14.80;;
60582;SDS011;46415;47.536;19.066;2022-10-30T16:59:59;20.33;;;14.77;;
60582;SDS011;46415;47.536;19.066;2022-10-30T17:03:05;17.17;;;12.37;;
60582;SDS011;46415;47.536;19.066;2022-10-30T17:09:52;20.83;;;14.70;;
60582;SDS011;46415;47.536;19.066;2022-10-30T17:13:54;23.52;;;15.35;;
60582;SDS011;46415;47.536;19.066;2022-10-30T17:16:40;22.92;;;14.65;;
60582;SDS011;46415;47.536;19.066;2022-10-30T17:19:46;21.05;;;14.90;;
60582;SDS011;46415;47.536;19.066;2022-10-30T17:23:02;17.73;;;10.35;;
60582;SDS011;46415;47.536;19.066;2022-10-30T17:26:16;23.85;;;15.77;;
60582;SDS011;46415;47.536;19.066;2022-10-30T17:33:00;22.52;;;15.93;;
60582;SDS011;46415;47.536;19.066;2022-10-30T17:36:05;17.75;;;11.52;;
60582;SDS011;46415;47.536;19.066;2022-10-30T17:39:10;21.55;;;15.57;;
60582;SDS011;46415;47.536;19.066;2022-10-30T17:42:14;23.60;;;16.23;;
60582;SDS011;46415;47.536;19.066;2022-10-30T17:45:17;21.70;;;15.98;;
60582;SDS011;46415;47.536;19.066;2022-10-30T17:48:20;23.33;;;14.55;;
60582;SDS011;46415;47.536;19.066;2022-10-30T17:51:27;22.77;;;16.80;;
60582;SDS011;46415;47.536;19.066;2022-10-30T17:54:31;23.60;;;16.20;;
60582;SDS011;46415;47.536;19.066;2022-10-30T17:57:35;25.25;;;16.65;;
60582;SDS011;46415;47.536;19.066;2022-10-30T18:00:37;22.58;;;14.30;;
60582;SDS011;46415;47.536;19.066;2022-10-30T18:03:41;24.02;;;16.45;;
60582;SDS011;46415;47.536;19.066;2022-10-30T18:06:44;24.20;;;16.17;;
60582;SDS011;46415;47.536;19.066;2022-10-30T18:09:47;28.40;;;17.27;;
60582;SDS011;46415;47.536;19.066;2022-10-30T18:12:50;25.08;;;16.30;;
60582;SDS011;46415;47.536;19.066;2022-10-30T18:15:55;22.50;;;15.75;;
60582;SDS011;46415;47.536;19.066;2022-10-30T18:18:59;23.02;;;15.77;;
60582;SDS011;46415;47.536;19.066;2022-10-30T18:22:02;25.65;;;16.30;;
60582;SDS011;46415;47.536;19.066;2022-10-30T18:25:49;25.00;;;16.20;;
60582;SDS011;46415;47.536;19.066;2022-10-30T18:28:36;27.92;;;17.33;;
60582;SDS011;46415;47.536;19.066;2022-10-30T18:31:39;23.17;;;16.10;;
60582;SDS011;46415;47.536;19.066;2022-10-30T18:34:42;24.98;;;17.37;;
60582;SDS011;46415;47.536;19.066;2022-10-30T18:37:45;25.15;;;16.83;;
60582;SDS011;46415;47.536;19.066;2022-10-30T18:40:48;23.10;;;14.85;;
60582;SDS011;46415;47.536;19.066;2022-10-30T18:43:52;26.05;;;16.52;;
60582;SDS011;46415;47.536;19.066;2022-10-30T18:46:59;26.27;;;16.85;;
60582;SDS011;46415;47.536;19.066;2022-10-30T18:50:05;23.05;;;15.52;;
60582;SDS011;46415;47.536;19.066;2022-10-30T18:53:14;24.58;;;16.65;;
60582;SDS011;46415;47.536;19.066;2022-10-30T18:56:26;27.05;;;15.95;;
60582;SDS011;46415;47.536;19.066;2022-10-30T18:59:30;28.80;;;17.37;;
60582;SDS011;46415;47.536;19.066;2022-10-30T19:02:33;24.20;;;16.70;;
60582;SDS011;46415;47.536;19.066;2022-10-30T19:05:38;25.45;;;17.48;;
60582;SDS011;46415;47.536;19.066;2022-10-30T19:08:48;24.17;;;16.02;;
60582;SDS011;46415;47.536;19.066;2022-10-30T19:11:52;26.67;;;17.73;;
60582;SDS011;46415;47.536;19.066;2022-10-30T19:14:54;30.15;;;18.73;;
60582;SDS011;46415;47.536;19.066;2022-10-30T19:17:59;24.92;;;17.45;;
60582;SDS011;46415;47.536;19.066;2022-10-30T19:21:03;24.77;;;14.15;;
60582;SDS011;46415;47.536;19.066;2022-10-30T19:24:12;27.20;;;17.40;;
60582;SDS011;46415;47.536;19.066;2022-10-30T19:27:16;23.02;;;17.35;;
60582;SDS011;46415;47.536;19.066;2022-10-30T19:30:20;28.08;;;18.12;;
60582;SDS011;46415;47.536;19.066;2022-10-30T19:33:23;26.62;;;16.87;;
60582;SDS011;46415;47.536;19.066;2022-10-30T19:36:29;27.48;;;17.17;;
60582;SDS011;46415;47.536;19.066;2022-10-30T19:39:38;26.05;;;18.52;;
60582;SDS011;46415;47.536;19.066;2022-10-30T19:42:41;23.67;;;16.55;;
60582;SDS011;46415;47.536;19.066;2022-10-30T19:45:44;27.60;;;16.73;;
60582;SDS011;46415;47.536;19.066;2022-10-30T19:48:51;28.33;;;19.30;;
60582;SDS011;46415;47.536;19.066;2022-10-30T19:55:03;29.10;;;13.98;;
60582;SDS011;46415;47.536;19.066;2022-10-30T19:58:08;27.25;;;18.50;;
60582;SDS011;46415;47.536;19.066;2022-10-30T20:01:14;25.77;;;17.70;;
60582;SDS011;46415;47.536;19.066;2022-10-30T20:04:18;24.23;;;16.65;;
60582;SDS011;46415;47.536;19.066;2022-10-30T20:07:21;20.20;;;13.82;;
60582;SDS011;46415;47.536;19.066;2022-10-30T20:10:25;29.67;;;17.75;;
60582;SDS011;46415;47.536;19.066;2022-10-30T20:13:30;23.90;;;16.12;;
60582;SDS011;46415;47.536;19.066;2022-10-30T20:16:35;27.77;;;18.48;;
60582;SDS011;46415;47.536;19.066;2022-10-30T20:19:39;23.98;;;16.77;;
60582;SDS011;46415;47.536;19.066;2022-10-30T20:22:43;24.45;;;14.23;;
60582;SDS011;46415;47.536;19.066;2022-10-30T20:25:47;27.13;;;16.70;;